Wetterdaten: Woche 28.03.16 - 03.04.16 (KW13)
Datum Zeit Temp. Aussen Temp. o. S. +5cm Feuchte Auss BlattFeu 1 Luftdruck Regen Sonnenschein Regendauer Solar Windben Empfang
28.03.2016 00:00 8,6 C 8,4 C 6,8 C 79 % 0 lf 1006,5 hPa 0,0 l/m 0,00 h 0,00 h 0 W/m 16,1 km/h (3 Bft) 97,67 %
28.03.2016 01:00 8,2 C 8,2 C 6,6 C 81 % 0 lf 1005,7 hPa 0,0 l/m 0,00 h 0,00 h 0 W/m 19,0 km/h (3 Bft) 95,51 %
28.03.2016 02:00 7,5 C 7,4 C 5,8 C 83 % 0 lf 1004,9 hPa 0,0 l/m 0,00 h 0,00 h 0 W/m 16,4 km/h (3 Bft) 95,44 %
28.03.2016 03:00 7,3 C 7,3 C 5,7 C 84 % 0 lf 1003,9 hPa 0,0 l/m 0,00 h 0,00 h 0 W/m 19,3 km/h (3 Bft) 95,73 %
28.03.2016 04:00 7,2 C 7,3 C 5,9 C 85 % 0 lf 1002,7 hPa 0,0 l/m 0,00 h 0,00 h 0 W/m 23,3 km/h (4 Bft) 95,37 %
28.03.2016 05:00 7,4 C 7,6 C 6,1 C 85 % 0 lf 1001,4 hPa 0,0 l/m 0,00 h 0,00 h 0 W/m 27,3 km/h (4 Bft) 96,86 %
28.03.2016 06:00 7,7 C 7,8 C 6,6 C 84 % 0 lf 1000,0 hPa 0,0 l/m 0,00 h 0,00 h 0 W/m 29,4 km/h (5 Bft) 97,00 %
28.03.2016 07:00 8,5 C 8,9 C 7,4 C 78 % 0 lf 998,9 hPa 0,0 l/m 0,00 h 0,00 h 10 W/m 35,8 km/h (5 Bft) 93,67 %
28.03.2016 08:00 9,1 C 9,1 C 7,5 C 75 % 0 lf 997,9 hPa 0,0 l/m 0,00 h 0,53 h 20 W/m 38,5 km/h (5 Bft) 96,44 %
28.03.2016 09:00 9,4 C 9,9 C 8,3 C 73 % 0 lf 996,9 hPa 0,0 l/m 0,00 h 0,00 h 53 W/m 39,3 km/h (6 Bft) 98,22 %
28.03.2016 10:00 10,1 C 10,6 C 9,0 C 72 % 0 lf 996,3 hPa 0,0 l/m 0,00 h 0,00 h 95 W/m 44,9 km/h (6 Bft) 93,45 %
28.03.2016 11:00 10,3 C 10,5 C 8,9 C 76 % 0 lf 995,4 hPa 0,0 l/m 0,07 h 0,50 h 97 W/m 38,4 km/h (5 Bft) 96,64 %
28.03.2016 12:00 11,2 C 11,9 C 10,1 C 76 % 0 lf 994,6 hPa 0,0 l/m 0,00 h 0,60 h 71 W/m 38,7 km/h (5 Bft) 97,51 %
28.03.2016 13:00 12,1 C 12,3 C 10,6 C 75 % 2 lf 994,3 hPa 0,0 l/m 0,00 h 0,57 h 111 W/m 43,6 km/h (6 Bft) 95,77 %
28.03.2016 14:00 12,2 C 13,3 C 11,2 C 73 % 0 lf 994,6 hPa 0,0 l/m 0,23 h 0,20 h 236 W/m 46,6 km/h (6 Bft) 96,26 %
28.03.2016 15:00 11,1 C 12,4 C 9,4 C 78 % 7 lf 995,2 hPa 0,2 l/m 0,27 h 0,20 h 246 W/m 27,1 km/h (4 Bft) 96,45 %
28.03.2016 16:00 12,2 C 14,1 C 11,2 C 74 % 0 lf 995,5 hPa 0,0 l/m 0,20 h 0,07 h 220 W/m 28,5 km/h (4 Bft) 94,22 %
28.03.2016 17:00 12,4 C 14,5 C 11,3 C 70 % 0 lf 996,1 hPa 0,0 l/m 0,57 h 0,00 h 212 W/m 28,2 km/h (4 Bft) 98,50 %
28.03.2016 18:00 12,1 C 12,8 C 10,4 C 64 % 0 lf 996,4 hPa 0,0 l/m 0,20 h 0,00 h 83 W/m 32,2 km/h (5 Bft) 95,66 %
28.03.2016 19:00 9,6 C 7,6 C 6,0 C 77 % 15 lf 997,3 hPa 0,8 l/m 0,23 h 0,13 h 41 W/m 25,1 km/h (4 Bft) 94,58 %
28.03.2016 20:00 8,2 C 7,4 C 5,2 C 81 % 6 lf 997,8 hPa 0,0 l/m 0,00 h 0,00 h 5 W/m 15,5 km/h (3 Bft) 97,65 %
28.03.2016 21:00 7,9 C 8,2 C 5,3 C 82 % 0 lf 998,3 hPa 0,0 l/m 0,00 h 0,00 h 0 W/m 15,7 km/h (3 Bft) 97,23 %
28.03.2016 22:00 8,7 C 8,9 C 6,8 C 79 % 0 lf 998,7 hPa 0,0 l/m 0,00 h 0,00 h 0 W/m 21,6 km/h (4 Bft) 92,67 %
28.03.2016 23:00 8,4 C 8,2 C 6,7 C 82 % 0 lf 999,0 hPa 0,0 l/m 0,00 h 0,00 h 0 W/m 23,6 km/h (4 Bft) 97,72 %
29.03.2016 00:00 7,9 C 7,9 C 6,3 C 82 % 0 lf 999,3 hPa 0,0 l/m 0,00 h 0,07 h 0 W/m 22,9 km/h (4 Bft) 95,65 %
29.03.2016 01:00 7,3 C 7,3 C 5,9 C 83 % 1 lf 999,9 hPa 0,0 l/m 0,00 h 0,07 h 0 W/m 38,6 km/h (5 Bft) 96,65 %
29.03.2016 02:00 6,1 C 5,2 C 4,0 C 88 % 15 lf 1000,6 hPa 1,0 l/m 0,00 h 0,97 h 0 W/m 30,6 km/h (5 Bft) 95,23 %
29.03.2016 03:00 5,6 C 5,1 C 3,9 C 92 % 15 lf 1001,1 hPa 0,0 l/m 0,00 h 0,17 h 0 W/m 27,3 km/h (4 Bft) 95,80 %
29.03.2016 04:00 5,8 C 5,5 C 3,9 C 91 % 10 lf 1001,7 hPa 0,0 l/m 0,00 h 0,13 h 0 W/m 26,6 km/h (4 Bft) 77,40 %
29.03.2016 05:00 6,3 C 5,7 C 4,4 C 87 % 0 lf 1002,1 hPa 0,0 l/m 0,00 h 0,10 h 0 W/m 31,5 km/h (5 Bft) 97,01 %
29.03.2016 06:00 6,5 C 6,5 C 5,0 C 86 % 1 lf 1002,7 hPa 0,0 l/m 0,00 h 0,07 h 0 W/m 29,1 km/h (5 Bft) 96,95 %
29.03.2016 07:00 6,6 C 6,6 C 5,1 C 85 % 1 lf 1003,4 hPa 0,0 l/m 0,00 h 0,30 h 14 W/m 35,1 km/h (5 Bft) 93,81 %
29.03.2016 08:00 6,7 C 7,0 C 5,4 C 85 % 5 lf 1004,2 hPa 0,0 l/m 0,00 h 0,60 h 47 W/m 36,0 km/h (5 Bft) 96,94 %
29.03.2016 09:00 7,0 C 7,6 C 5,6 C 85 % 11 lf 1004,9 hPa 0,2 l/m 0,17 h 1,00 h 120 W/m 39,5 km/h (6 Bft) 97,22 %
29.03.2016 10:00 8,0 C 9,5 C 7,5 C 81 % 5 lf 1005,6 hPa 0,0 l/m 0,30 h 0,43 h 223 W/m 40,2 km/h (6 Bft) 95,38 %
29.03.2016 11:00 9,0 C 11,7 C 9,3 C 77 % 0 lf 1006,2 hPa 0,0 l/m 0,37 h 0,00 h 282 W/m 39,7 km/h (6 Bft) 93,95 %
29.03.2016 12:00 9,7 C 11,9 C 9,8 C 72 % 0 lf 1006,5 hPa 0,0 l/m 0,23 h 0,00 h 267 W/m 42,2 km/h (6 Bft) 98,36 %
29.03.2016 13:00 10,7 C 14,3 C 10,5 C 69 % 0 lf 1007,0 hPa 0,0 l/m 0,67 h 0,00 h 560 W/m 46,8 km/h (6 Bft) 95,09 %
29.03.2016 14:00 12,0 C 16,5 C 11,7 C 64 % 0 lf 1007,1 hPa 0,0 l/m 0,97 h 0,00 h 735 W/m 41,0 km/h (6 Bft) 95,00 %
29.03.2016 15:00 11,6 C 13,6 C 10,5 C 68 % 0 lf 1007,6 hPa 0,0 l/m 0,30 h 0,17 h 277 W/m 30,9 km/h (5 Bft) 98,50 %
29.03.2016 16:00 9,1 C 10,3 C 6,7 C 81 % 13 lf 1008,4 hPa 0,6 l/m 0,40 h 0,35 h 280 W/m 29,5 km/h (5 Bft) 94,97 %
29.03.2016 17:00 9,3 C 12,2 C 7,1 C 81 % 0 lf 1008,3 hPa 0,0 l/m 0,67 h 0,07 h 233 W/m 22,2 km/h (4 Bft) 95,37 %
29.03.2016 18:00 10,2 C 11,7 C 8,5 C 76 % 0 lf 1008,3 hPa 0,0 l/m 0,80 h 0,00 h 165 W/m 21,9 km/h (4 Bft) 95,87 %
29.03.2016 19:00 9,6 C 8,8 C 7,0 C 77 % 0 lf 1008,5 hPa 0,0 l/m 0,13 h 0,00 h 32 W/m 10,3 km/h (2 Bft) 96,73 %
29.03.2016 20:00 8,2 C 7,4 C 5,5 C 81 % 0 lf 1008,5 hPa 0,0 l/m 0,00 h 0,00 h 6 W/m 7,6 km/h (2 Bft) 95,23 %
29.03.2016 21:00 7,0 C 6,8 C 5,2 C 87 % 0 lf 1008,5 hPa 0,0 l/m 0,00 h 0,00 h 0 W/m 12,5 km/h (3 Bft) 96,37 %
29.03.2016 22:00 6,9 C 7,1 C 5,6 C 89 % 0 lf 1008,1 hPa 0,0 l/m 0,00 h 0,00 h 0 W/m 17,8 km/h (3 Bft) 95,59 %
29.03.2016 23:00 7,0 C 7,2 C 5,6 C 89 % 0 lf 1007,6 hPa 0,0 l/m 0,00 h 0,00 h 0 W/m 12,9 km/h (3 Bft) 97,22 %
30.03.2016 00:00 7,0 C 7,2 C 5,8 C 89 % 0 lf 1006,7 hPa 0,0 l/m 0,00 h 0,00 h 0 W/m 11,4 km/h (2 Bft) 95,44 %
30.03.2016 01:00 7,6 C 8,1 C 6,5 C 88 % 3 lf 1006,1 hPa 0,4 l/m 0,00 h 0,30 h 0 W/m 16,5 km/h (3 Bft) 93,94 %
30.03.2016 02:00 8,9 C 8,3 C 6,7 C 90 % 8 lf 1005,8 hPa 0,0 l/m 0,00 h 0,10 h 0 W/m 24,0 km/h (4 Bft) 96,93 %
30.03.2016 03:00 9,4 C 8,9 C 7,2 C 88 % 0 lf 1005,8 hPa 0,0 l/m 0,00 h 0,07 h 0 W/m 24,5 km/h (4 Bft) 97,86 %
30.03.2016 04:00 9,6 C 9,7 C 7,7 C 87 % 0 lf 1005,8 hPa 0,0 l/m 0,00 h 0,00 h 0 W/m 27,5 km/h (4 Bft) 93,68 %
30.03.2016 05:00 9,5 C 9,5 C 7,9 C 86 % 0 lf 1005,9 hPa 0,0 l/m 0,00 h 0,00 h 0 W/m 27,1 km/h (4 Bft) 96,65 %
30.03.2016 06:00 8,9 C 8,9 C 7,3 C 85 % 0 lf 1006,2 hPa 0,0 l/m 0,00 h 0,00 h 0 W/m 20,0 km/h (4 Bft) 96,47 %
30.03.2016 07:00 8,4 C 8,3 C 7,0 C 82 % 0 lf 1006,9 hPa 0,0 l/m 0,00 h 0,00 h 13 W/m 18,9 km/h (3 Bft) 95,44 %
30.03.2016 08:00 8,1 C 8,4 C 7,0 C 82 % 0 lf 1007,6 hPa 0,0 l/m 0,00 h 0,00 h 58 W/m 12,6 km/h (3 Bft) 97,30 %
30.03.2016 09:00 8,5 C 10,0 C 8,2 C 84 % 0 lf 1008,3 hPa 0,0 l/m 0,00 h 0,00 h 133 W/m 11,3 km/h (2 Bft) 94,29 %
30.03.2016 10:00 9,5 C 11,1 C 9,2 C 82 % 0 lf 1008,7 hPa 0,0 l/m 0,00 h 0,00 h 193 W/m 21,6 km/h (4 Bft) 96,16 %
30.03.2016 11:00 10,6 C 13,8 C 11,3 C 76 % 0 lf 1009,1 hPa 0,0 l/m 0,93 h 0,00 h 350 W/m 22,6 km/h (4 Bft) 98,15 %
30.03.2016 12:00 11,7 C 15,6 C 12,9 C 71 % 0 lf 1009,4 hPa 0,0 l/m 0,80 h 0,00 h 437 W/m 24,3 km/h (4 Bft) 93,88 %
30.03.2016 13:00 12,3 C 15,9 C 12,6 C 66 % 0 lf 1009,6 hPa 0,0 l/m 0,97 h 0,00 h 469 W/m 24,7 km/h (4 Bft) 95,87 %
30.03.2016 14:00 13,0 C 16,3 C 12,7 C 62 % 0 lf 1009,7 hPa 0,0 l/m 0,80 h 0,00 h 416 W/m 25,2 km/h (4 Bft) 96,94 %
30.03.2016 15:00 12,8 C 15,0 C 12,3 C 62 % 0 lf 1009,8 hPa 0,0 l/m 0,30 h 0,00 h 288 W/m 24,5 km/h (4 Bft) 95,15 %
30.03.2016 16:00 12,5 C 14,4 C 12,0 C 63 % 0 lf 1009,8 hPa 0,0 l/m 0,43 h 0,00 h 257 W/m 24,0 km/h (4 Bft) 94,52 %
30.03.2016 17:00 12,9 C 14,6 C 11,9 C 61 % 0 lf 1009,7 hPa 0,0 l/m 0,47 h 0,00 h 203 W/m 19,7 km/h (3 Bft) 99,08 %
30.03.2016 18:00 12,3 C 12,9 C 10,9 C 64 % 0 lf 1009,8 hPa 0,0 l/m 0,13 h 0,00 h 93 W/m 16,3 km/h (3 Bft) 95,23 %
30.03.2016 19:00 11,5 C 11,4 C 9,7 C 66 % 0 lf 1009,9 hPa 0,0 l/m 0,00 h 0,00 h 28 W/m 13,1 km/h (3 Bft) 94,66 %
30.03.2016 20:00 10,7 C 10,2 C 8,7 C 70 % 0 lf 1010,2 hPa 0,0 l/m 0,00 h 0,00 h 5 W/m 7,6 km/h (2 Bft) 96,79 %
30.03.2016 21:00 10,1 C 9,4 C 7,8 C 72 % 0 lf 1010,6 hPa 0,0 l/m 0,00 h 0,17 h 0 W/m 5,9 km/h (2 Bft) 96,58 %
30.03.2016 22:00 9,2 C 7,5 C 6,3 C 81 % 14 lf 1011,3 hPa 0,6 l/m 0,00 h 0,83 h 0 W/m 8,2 km/h (2 Bft) 96,64 %
30.03.2016 23:00 8,3 C 7,2 C 6,1 C 87 % 15 lf 1011,3 hPa 0,2 l/m 0,00 h 0,77 h 0 W/m 1,6 km/h (1 Bft) 96,86 %
31.03.2016 00:00 7,8 C 6,7 C 5,7 C 89 % 15 lf 1011,7 hPa 0,6 l/m 0,00 h 0,97 h 0 W/m 5,7 km/h (1 Bft) 93,58 %
31.03.2016 01:00 7,4 C 6,7 C 5,6 C 91 % 15 lf 1011,8 hPa 0,2 l/m 0,00 h 0,93 h 0 W/m 2,8 km/h (1 Bft) 98,08 %
31.03.2016 02:00 7,1 C 6,6 C 5,6 C 92 % 15 lf 1011,7 hPa 0,2 l/m 0,00 h 1,00 h 0 W/m 0,8 km/h (0 Bft) 98,22 %
31.03.2016 03:00 6,9 C 6,1 C 5,3 C 93 % 15 lf 1011,7 hPa 0,2 l/m 0,00 h 0,60 h 0 W/m 0,9 km/h (0 Bft) 92,60 %
31.03.2016 04:00 6,7 C 6,1 C 5,0 C 93 % 15 lf 1011,6 hPa 0,0 l/m 0,00 h 0,13 h 0 W/m 2,5 km/h (1 Bft) 97,64 %
31.03.2016 05:00 6,5 C 6,1 C 5,0 C 94 % 15 lf 1011,7 hPa 0,0 l/m 0,00 h 0,00 h 0 W/m 0,8 km/h (0 Bft) 95,66 %
31.03.2016 06:00 6,4 C 6,1 C 5,0 C 94 % 15 lf 1011,4 hPa 0,0 l/m 0,00 h 0,00 h 0 W/m 3,5 km/h (1 Bft) 96,00 %
31.03.2016 07:00 6,4 C 6,1 C 5,0 C 95 % 15 lf 1011,6 hPa 0,0 l/m 0,00 h 0,00 h 8 W/m 2,7 km/h (1 Bft) 95,33 %
31.03.2016 08:00 6,4 C 6,7 C 5,5 C 95 % 15 lf 1011,7 hPa 0,0 l/m 0,00 h 0,00 h 37 W/m 0,6 km/h (0 Bft) 94,73 %
31.03.2016 09:00 6,8 C 7,3 C 5,7 C 96 % 15 lf 1012,1 hPa 0,0 l/m 0,00 h 0,00 h 63 W/m 2,4 km/h (1 Bft) 95,46 %
31.03.2016 10:00 7,3 C 8,1 C 6,4 C 96 % 7 lf 1012,5 hPa 0,0 l/m 0,00 h 0,03 h 123 W/m 9,2 km/h (2 Bft) 98,29 %
31.03.2016 11:00 8,1 C 9,7 C 7,1 C 96 % 2 lf 1012,5 hPa 0,0 l/m 0,00 h 0,47 h 170 W/m 14,6 km/h (3 Bft) 95,08 %
31.03.2016 12:00 8,5 C 9,7 C 6,7 C 86 % 1 lf 1012,5 hPa 0,0 l/m 0,00 h 0,47 h 144 W/m 21,1 km/h (4 Bft) 93,87 %
31.03.2016 13:00 9,1 C 10,4 C 8,0 C 75 % 0 lf 1012,6 hPa 0,0 l/m 0,00 h 0,27 h 202 W/m 20,6 km/h (4 Bft) 96,73 %
31.03.2016 14:00 9,4 C 10,2 C 8,2 C 71 % 5 lf 1012,7 hPa 0,0 l/m 0,00 h 0,57 h 166 W/m 21,4 km/h (4 Bft) 97,22 %
31.03.2016 15:00 9,1 C 9,9 C 7,9 C 73 % 4 lf 1012,1 hPa 0,0 l/m 0,00 h 0,47 h 158 W/m 24,6 km/h (4 Bft) 96,09 %
31.03.2016 16:00 9,3 C 10,3 C 8,7 C 68 % 0 lf 1011,4 hPa 0,0 l/m 0,00 h 0,00 h 130 W/m 22,8 km/h (4 Bft) 93,87 %
31.03.2016 17:00 9,9 C 10,8 C 9,1 C 66 % 0 lf 1010,9 hPa 0,0 l/m 0,00 h 0,00 h 125 W/m 25,9 km/h (4 Bft) 98,22 %
31.03.2016 18:00 9,6 C 9,8 C 8,1 C 68 % 0 lf 1011,1 hPa 0,0 l/m 0,00 h 0,07 h 37 W/m 20,7 km/h (4 Bft) 95,88 %
31.03.2016 19:00 8,9 C 8,1 C 5,9 C 71 % 12 lf 1012,2 hPa 0,2 l/m 0,00 h 1,00 h 9 W/m 23,5 km/h (4 Bft) 96,44 %
31.03.2016 20:00 7,7 C 6,0 C 4,5 C 79 % 15 lf 1013,0 hPa 0,2 l/m 0,00 h 0,98 h 0 W/m 21,9 km/h (4 Bft) 95,53 %
31.03.2016 21:00 7,1 C 6,8 C 4,6 C 82 % 3 lf 1012,9 hPa 0,0 l/m 0,00 h 0,17 h 0 W/m 14,8 km/h (3 Bft) 95,29 %
31.03.2016 22:00 6,8 C 6,7 C 4,5 C 85 % 1 lf 1013,0 hPa 0,0 l/m 0,00 h 0,47 h 0 W/m 15,5 km/h (3 Bft) 96,37 %
31.03.2016 23:00 6,4 C 6,2 C 4,6 C 86 % 0 lf 1013,2 hPa 0,0 l/m 0,00 h 0,00 h 0 W/m 8,6 km/h (2 Bft) 98,58 %
01.04.2016 00:00 6,4 C 6,1 C 4,9 C 87 % 0 lf 1013,9 hPa 0,2 l/m 0,00 h 0,00 h 0 W/m 4,1 km/h (1 Bft) 93,61 %
01.04.2016 01:00 6,2 C 5,9 C 4,5 C 87 % 0 lf 1014,8 hPa 0,0 l/m 0,00 h 0,00 h 0 W/m 0,6 km/h (0 Bft) 95,44 %
01.04.2016 02:00 6,1 C 6,1 C 4,9 C 88 % 0 lf 1015,2 hPa 0,0 l/m 0,00 h 0,03 h 0 W/m 6,4 km/h (2 Bft) 97,08 %
01.04.2016 03:00 6,3 C 6,3 C 5,1 C 87 % 0 lf 1016,0 hPa 0,0 l/m 0,00 h 0,00 h 0 W/m 13,7 km/h (3 Bft) 96,16 %
01.04.2016 04:00 5,8 C 5,5 C 4,4 C 87 % 0 lf 1016,8 hPa 0,0 l/m 0,00 h 0,00 h 0 W/m 14,0 km/h (3 Bft) 96,37 %
01.04.2016 05:00 4,9 C 3,6 C 2,5 C 87 % 0 lf 1016,7 hPa 0,0 l/m 0,00 h 0,00 h 0 W/m 7,0 km/h (2 Bft) 94,16 %
01.04.2016 06:00 3,7 C 1,8 C 1,0 C 88 % 2 lf 1017,7 hPa 0,0 l/m 0,00 h 0,00 h 0 W/m 4,6 km/h (1 Bft) 97,01 %
01.04.2016 07:00 2,7 C 1,5 C 0,7 C 90 % 7 lf 1018,6 hPa 0,0 l/m 0,50 h 0,00 h 28 W/m 3,4 km/h (1 Bft) 95,58 %
01.04.2016 08:00 2,7 C 3,8 C 2,4 C 92 % 7 lf 1019,4 hPa 0,0 l/m 1,00 h 0,00 h 152 W/m 4,7 km/h (1 Bft) 97,44 %
01.04.2016 09:00 5,1 C 13,4 C 6,6 C 95 % 0 lf 1020,0 hPa 0,0 l/m 1,00 h 0,00 h 329 W/m 9,3 km/h (2 Bft) 95,86 %
01.04.2016 10:00 8,0 C 18,8 C 13,2 C 88 % 0 lf 1020,6 hPa 0,0 l/m 1,00 h 0,00 h 491 W/m 8,5 km/h (2 Bft) 94,95 %
01.04.2016 11:00 11,0 C 18,7 C 14,8 C 73 % 0 lf 1021,1 hPa 0,0 l/m 1,00 h 0,00 h 608 W/m 11,4 km/h (2 Bft) 96,94 %
01.04.2016 12:00 12,1 C 18,6 C 15,5 C 67 % 0 lf 1021,2 hPa 0,0 l/m 0,90 h 0,00 h 674 W/m 17,8 km/h (3 Bft) 95,02 %
01.04.2016 13:00 12,9 C 16,8 C 12,7 C 62 % 0 lf 1020,9 hPa 0,0 l/m 0,53 h 0,00 h 488 W/m 19,3 km/h (3 Bft) 97,09 %
01.04.2016 14:00 13,1 C 16,7 C 12,5 C 59 % 0 lf 1020,6 hPa 0,0 l/m 0,43 h 0,00 h 411 W/m 17,0 km/h (3 Bft) 95,73 %
01.04.2016 15:00 14,0 C 18,3 C 12,8 C 55 % 0 lf 1020,0 hPa 0,0 l/m 0,60 h 0,00 h 511 W/m 17,1 km/h (3 Bft) 95,16 %
01.04.2016 16:00 13,4 C 17,0 C 12,3 C 54 % 0 lf 1019,6 hPa 0,0 l/m 0,60 h 0,00 h 366 W/m 14,4 km/h (3 Bft) 97,79 %
01.04.2016 17:00 14,2 C 17,8 C 12,5 C 51 % 0 lf 1019,0 hPa 0,0 l/m 1,00 h 0,00 h 378 W/m 18,3 km/h (3 Bft) 95,58 %
01.04.2016 18:00 13,8 C 14,9 C 11,8 C 51 % 0 lf 1018,8 hPa 0,0 l/m 1,00 h 0,00 h 183 W/m 14,8 km/h (3 Bft) 93,45 %
01.04.2016 19:00 12,9 C 12,4 C 10,1 C 54 % 0 lf 1018,9 hPa 0,0 l/m 0,20 h 0,00 h 38 W/m 9,6 km/h (2 Bft) 97,87 %
01.04.2016 20:00 11,4 C 9,9 C 7,1 C 61 % 0 lf 1019,0 hPa 0,0 l/m 0,00 h 0,00 h 6 W/m 5,3 km/h (1 Bft) 96,29 %
01.04.2016 21:00 9,9 C 9,4 C 6,8 C 67 % 0 lf 1019,5 hPa 0,0 l/m 0,00 h 0,00 h 0 W/m 8,5 km/h (2 Bft) 94,81 %
01.04.2016 22:00 8,9 C 8,4 C 6,0 C 72 % 0 lf 1019,6 hPa 0,0 l/m 0,00 h 0,00 h 0 W/m 7,0 km/h (2 Bft) 97,36 %
01.04.2016 23:00 8,4 C 8,3 C 6,7 C 76 % 0 lf 1019,4 hPa 0,0 l/m 0,00 h 0,00 h 0 W/m 5,6 km/h (1 Bft) 95,38 %
02.04.2016 00:00 8,4 C 8,8 C 7,0 C 77 % 0 lf 1019,1 hPa 0,0 l/m 0,00 h 0,00 h 0 W/m 7,4 km/h (2 Bft) 96,08 %
02.04.2016 01:00 8,7 C 8,9 C 7,3 C 76 % 0 lf 1018,6 hPa 0,0 l/m 0,00 h 0,00 h 0 W/m 13,5 km/h (3 Bft) 96,80 %
02.04.2016 02:00 8,7 C 8,7 C 7,2 C 74 % 0 lf 1018,5 hPa 0,0 l/m 0,00 h 0,00 h 0 W/m 14,3 km/h (3 Bft) 94,45 %
02.04.2016 03:00 8,2 C 8,2 C 6,8 C 76 % 0 lf 1018,2 hPa 0,0 l/m 0,00 h 0,00 h 0 W/m 12,9 km/h (3 Bft) 96,65 %
02.04.2016 04:00 7,8 C 7,8 C 6,7 C 78 % 0 lf 1017,9 hPa 0,0 l/m 0,00 h 0,00 h 0 W/m 10,7 km/h (2 Bft) 98,34 %
02.04.2016 05:00 7,5 C 7,8 C 6,1 C 79 % 0 lf 1017,6 hPa 0,0 l/m 0,00 h 0,00 h 0 W/m 9,9 km/h (2 Bft) 93,24 %
02.04.2016 06:00 7,3 C 7,2 C 6,1 C 81 % 0 lf 1017,4 hPa 0,0 l/m 0,00 h 0,00 h 0 W/m 14,4 km/h (3 Bft) 96,02 %
02.04.2016 07:00 7,2 C 7,2 C 6,1 C 82 % 0 lf 1017,5 hPa 0,0 l/m 0,00 h 0,00 h 13 W/m 15,8 km/h (3 Bft) 96,51 %
02.04.2016 08:00 7,3 C 7,7 C 6,5 C 83 % 0 lf 1017,4 hPa 0,0 l/m 0,00 h 0,00 h 59 W/m 14,7 km/h (3 Bft) 96,08 %
02.04.2016 09:00 7,6 C 8,4 C 7,5 C 83 % 0 lf 1017,4 hPa 0,0 l/m 0,00 h 0,00 h 129 W/m 16,2 km/h (3 Bft) 95,95 %
02.04.2016 10:00 8,4 C 10,0 C 8,9 C 82 % 0 lf 1017,4 hPa 0,0 l/m 0,40 h 0,00 h 236 W/m 16,5 km/h (3 Bft) 95,96 %
02.04.2016 11:00 9,9 C 12,8 C 11,6 C 79 % 0 lf 1017,5 hPa 0,0 l/m 1,00 h 0,00 h 362 W/m 13,1 km/h (3 Bft) 95,16 %
02.04.2016 12:00 12,6 C 19,2 C 16,7 C 71 % 0 lf 1016,9 hPa 0,0 l/m 1,00 h 0,00 h 615 W/m 12,5 km/h (3 Bft) 97,96 %
02.04.2016 13:00 13,1 C 15,2 C 13,4 C 68 % 0 lf 1016,2 hPa 0,0 l/m 0,50 h 0,00 h 378 W/m 12,4 km/h (3 Bft) 95,81 %
02.04.2016 14:00 14,0 C 18,2 C 14,2 C 67 % 0 lf 1015,8 hPa 0,0 l/m 1,00 h 0,00 h 531 W/m 13,5 km/h (3 Bft) 94,51 %
02.04.2016 15:00 14,7 C 17,1 C 15,2 C 65 % 0 lf 1015,0 hPa 0,0 l/m 0,90 h 0,00 h 382 W/m 15,1 km/h (3 Bft) 97,79 %
02.04.2016 16:00 15,1 C 17,1 C 14,6 C 65 % 0 lf 1014,0 hPa 0,0 l/m 0,70 h 0,00 h 303 W/m 15,3 km/h (3 Bft) 95,72 %
02.04.2016 17:00 15,6 C 16,8 C 14,7 C 64 % 0 lf 1013,3 hPa 0,0 l/m 0,67 h 0,00 h 209 W/m 16,0 km/h (3 Bft) 96,65 %
02.04.2016 18:00 15,6 C 16,0 C 14,1 C 65 % 0 lf 1012,6 hPa 0,0 l/m 0,00 h 0,00 h 92 W/m 16,6 km/h (3 Bft) 96,92 %
02.04.2016 19:00 15,2 C 15,0 C 13,0 C 67 % 0 lf 1012,2 hPa 0,0 l/m 0,00 h 0,00 h 34 W/m 11,3 km/h (2 Bft) 95,17 %
02.04.2016 20:00 14,5 C 14,3 C 12,3 C 71 % 0 lf 1011,7 hPa 0,0 l/m 0,00 h 0,00 h 6 W/m 13,0 km/h (3 Bft) 96,08 %
02.04.2016 21:00 14,0 C 13,9 C 11,6 C 73 % 0 lf 1011,7 hPa 0,0 l/m 0,00 h 0,00 h 0 W/m 9,4 km/h (2 Bft) 98,08 %
02.04.2016 22:00 13,7 C 13,8 C 11,8 C 76 % 0 lf 1011,7 hPa 0,0 l/m 0,00 h 0,00 h 0 W/m 12,9 km/h (3 Bft) 95,09 %
02.04.2016 23:00 13,8 C 13,8 C 12,1 C 78 % 0 lf 1011,7 hPa 0,0 l/m 0,00 h 0,00 h 0 W/m 14,1 km/h (3 Bft) 95,80 %
03.04.2016 00:00 13,5 C 13,5 C 11,7 C 79 % 0 lf 1011,7 hPa 0,0 l/m 0,00 h 0,37 h 0 W/m 12,5 km/h (3 Bft) 97,16 %
03.04.2016 01:00 13,1 C 12,6 C 10,7 C 82 % 2 lf 1011,5 hPa 0,0 l/m 0,00 h 0,67 h 0 W/m 11,0 km/h (2 Bft) 96,94 %
03.04.2016 02:00 12,7 C 12,5 C 10,6 C 84 % 0 lf 1011,1 hPa 0,0 l/m 0,00 h 0,17 h 0 W/m 11,0 km/h (2 Bft) 95,16 %
03.04.2016 03:00 12,4 C 12,6 C 10,9 C 84 % 0 lf 1010,9 hPa 0,0 l/m 0,00 h 0,00 h 0 W/m 11,1 km/h (2 Bft) 96,65 %
03.04.2016 04:00 12,3 C 12,3 C 10,6 C 84 % 0 lf 1010,5 hPa 0,0 l/m 0,00 h 0,00 h 0 W/m 9,7 km/h (2 Bft) 96,95 %
03.04.2016 05:00 12,1 C 11,9 C 10,3 C 85 % 0 lf 1010,3 hPa 0,0 l/m 0,00 h 0,37 h 0 W/m 11,9 km/h (2 Bft) 96,02 %
03.04.2016 06:00 11,8 C 11,9 C 10,4 C 86 % 0 lf 1010,0 hPa 0,0 l/m 0,00 h 0,00 h 0 W/m 11,7 km/h (2 Bft) 96,51 %
03.04.2016 07:00 11,7 C 11,1 C 9,7 C 87 % 1 lf 1010,4 hPa 0,2 l/m 0,00 h 0,73 h 11 W/m 9,5 km/h (2 Bft) 94,37 %
03.04.2016 08:00 11,5 C 11,0 C 9,5 C 90 % 0 lf 1010,6 hPa 0,0 l/m 0,00 h 0,95 h 63 W/m 11,0 km/h (2 Bft) 96,36 %
03.04.2016 09:00 11,9 C 11,5 C 10,1 C 91 % 2 lf 1010,6 hPa 0,2 l/m 0,00 h 1,00 h 83 W/m 10,5 km/h (2 Bft) 96,08 %
03.04.2016 10:00 12,1 C 11,4 C 10,0 C 92 % 0 lf 1010,7 hPa 0,2 l/m 0,00 h 0,40 h 51 W/m 10,6 km/h (2 Bft) 95,45 %
03.04.2016 11:00 13,2 C 18,7 C 14,9 C 90 % 0 lf 1010,3 hPa 0,0 l/m 0,73 h 0,00 h 451 W/m 12,6 km/h (3 Bft) 95,58 %
03.04.2016 12:00 17,2 C 22,4 C 21,1 C 77 % 0 lf 1010,1 hPa 0,0 l/m 0,97 h 0,00 h 595 W/m 16,4 km/h (3 Bft) 97,60 %
03.04.2016 13:00 18,8 C 23,1 C 19,1 C 72 % 0 lf 1009,6 hPa 0,0 l/m 0,93 h 0,00 h 598 W/m 18,5 km/h (3 Bft) 95,20 %
03.04.2016 14:00 19,4 C 22,8 C 19,1 C 69 % 0 lf 1009,1 hPa 0,0 l/m 0,83 h 0,00 h 495 W/m 18,0 km/h (3 Bft) 95,59 %
03.04.2016 15:00 20,1 C 21,9 C 18,7 C 67 % 0 lf 1008,7 hPa 0,0 l/m 0,30 h 0,00 h 284 W/m 10,6 km/h (2 Bft) 97,05 %
03.04.2016 16:00 20,5 C 23,9 C 19,6 C 65 % 0 lf 1008,1 hPa 0,0 l/m 0,57 h 0,00 h 350 W/m 11,2 km/h (2 Bft) 96,30 %
03.04.2016 17:00 19,8 C 19,3 C 17,4 C 65 % 0 lf 1007,5 hPa 0,0 l/m 0,00 h 0,20 h 58 W/m 10,1 km/h (2 Bft) 95,37 %
03.04.2016 18:00 19,5 C 20,7 C 17,7 C 68 % 0 lf 1007,0 hPa 0,0 l/m 0,63 h 0,00 h 155 W/m 11,4 km/h (2 Bft) 96,37 %
03.04.2016 19:00 19,3 C 18,2 C 15,7 C 69 % 1 lf 1006,6 hPa 0,0 l/m 0,00 h 0,20 h 11 W/m 6,4 km/h (2 Bft) 98,43 %
03.04.2016 20:00 17,9 C 15,8 C 12,9 C 76 % 3 lf 1006,7 hPa 0,2 l/m 0,00 h 0,40 h 0 W/m 13,2 km/h (3 Bft) 93,94 %
03.04.2016 21:00 17,0 C 16,7 C 13,3 C 74 % 0 lf 1007,0 hPa 0,0 l/m 0,00 h 0,60 h 0 W/m 22,2 km/h (4 Bft) 96,30 %
03.04.2016 22:00 15,8 C 14,6 C 12,3 C 79 % 0 lf 1007,1 hPa 0,2 l/m 0,00 h 0,77 h 0 W/m 15,4 km/h (3 Bft) 97,51 %
03.04.2016 23:00 15,0 C 15,0 C 13,1 C 83 % 0 lf 1006,9 hPa 0,0 l/m 0,00 h 0,30 h 0 W/m 20,1 km/h (4 Bft) 96,22 %
Min-Datum _ 01.04.16 01.04.16 01.04.16 01.04.16 28.03.16 28.03.16 - - - - 29.03.16 29.03.16
_ Min-Zeit 07:52 06:46 06:38 17:06 00:00 13:06 - - - - 04:02 04:02
Minimum _ 2,4 C 1,1 C 0,6 C 50 % 0 lf 994,1 hPa - - - - 0,0 km/h (0 Bft) 0,00 %
Max-Datum _ 03.04.16 03.04.16 03.04.16 31.03.16 28.03.16 01.04.16 29.03.16 28.03.16 28.03.16 29.03.16 28.03.16 28.03.16
_ Max-Zeit 16:40 15:12 12:20 10:46 15:00 11:56 02:06 11:00 08:20 13:40 13:06 00:06
Maximum _ 21,0 C 27,2 C 22,8 C 97 % 15 lf 1021,3 hPa 1,0 l/m 0,03 h 0,03 h 1048 W/m 71,1 km/h
SW (8 Bft)
100,00 %
Durchschnitt _ 10,1 C 10,9 C 8,8 C 78 % 2 lf 1009,7 hPa #6,8 l/m #32:30 h #25:19 h 211 W/m 17,7 km/h (3 Bft) 95,95 %
© 2016 W. Hausmann